Time;durP1;ratioP1;P1;durP2;ratioP2;P2;SDS_P1;SDS_P2;PMS_P1;PMS_P2;Temp;Humidity;BMP_temperature;BMP_pressure;BME280_temperature;BME280_humidity;BME280_pressure;Samples;Min_cycle;Max_cycle;Signal;HPM_P1;HPM_P2
2024/03/25 00:00:10;;;;;;;2.22;0.60;;;4.90;91.10;;;;;;5072104;28;20037;-71
2024/03/25 00:02:37;;;;;;;1.58;0.57;;;4.90;91.00;;;;;;5071767;28;20056;-71
2024/03/25 00:05:05;;;;;;;3.00;0.90;;;4.90;91.00;;;;;;5071167;28;20049;-72
2024/03/25 00:07:31;;;;;;;0.73;0.47;;;4.90;91.00;;;;;;5072213;28;20499;-71
2024/03/25 00:09:58;;;;;;;1.00;0.50;;;4.90;91.00;;;;;;5071775;28;20041;-71
2024/03/25 00:12:28;;;;;;;1.60;0.43;;;4.90;91.00;;;;;;5054723;28;20167;-74
2024/03/25 00:14:53;;;;;;;1.85;0.50;;;4.90;91.00;;;;;;5054662;28;20045;-71
2024/03/25 00:17:20;;;;;;;0.75;0.35;;;4.80;91.00;;;;;;5126795;27;20035;-72
2024/03/25 00:19:50;;;;;;;0.70;0.40;;;4.80;91.00;;;;;;5116705;28;20086;-71
2024/03/25 00:22:19;;;;;;;1.17;0.38;;;4.80;91.00;;;;;;5135238;28;20411;-71
2024/03/25 00:24:46;;;;;;;0.63;0.30;;;4.70;91.00;;;;;;5116763;28;20152;-71
2024/03/25 00:27:12;;;;;;;1.02;0.47;;;4.70;91.00;;;;;;5116897;28;20053;-73
2024/03/25 00:29:38;;;;;;;1.13;0.50;;;4.70;91.10;;;;;;5134498;27;20050;-72
2024/03/25 00:32:04;;;;;;;2.05;0.55;;;4.60;91.10;;;;;;5116698;28;20035;-72
2024/03/25 00:34:30;;;;;;;0.50;0.40;;;4.60;91.20;;;;;;5134611;27;20088;-72
2024/03/25 00:36:59;;;;;;;3.20;0.50;;;4.60;91.20;;;;;;5116049;27;20039;-72
2024/03/25 00:39:29;;;;;;;1.42;0.40;;;4.60;91.20;;;;;;5116761;28;20042;-72
2024/03/25 00:41:54;;;;;;;1.10;0.40;;;4.50;91.20;;;;;;5115637;28;20498;-72
2024/03/25 00:44:23;;;;;;;1.02;0.30;;;4.50;91.20;;;;;;5097739;28;20043;-71
2024/03/25 00:46:49;;;;;;;3.03;0.30;;;4.50;91.30;;;;;;5115842;28;20050;-72
2024/03/25 00:49:15;;;;;;;3.42;0.50;;;4.50;91.30;;;;;;5116301;28;20042;-72
2024/03/25 00:51:41;;;;;;;3.22;0.70;;;4.50;91.30;;;;;;5115834;28;20044;-71
2024/03/25 00:54:07;;;;;;;1.00;0.50;;;4.50;91.30;;;;;;5115195;28;20126;-71
2024/03/25 00:56:33;;;;;;;2.08;0.40;;;4.50;91.30;;;;;;5113930;28;20120;-71
2024/03/25 00:59:02;;;;;;;2.58;0.90;;;4.50;91.30;;;;;;5113279;28;20043;-71
2024/03/25 01:01:29;;;;;;;2.15;0.40;;;4.40;91.30;;;;;;5133906;28;20051;-73
2024/03/25 01:03:58;;;;;;;0.88;0.40;;;4.40;91.30;;;;;;5114624;28;20042;-71
2024/03/25 01:06:24;;;;;;;1.15;0.50;;;4.40;91.30;;;;;;5133946;28;20069;-72
2024/03/25 01:08:50;;;;;;;0.90;0.45;;;4.40;91.30;;;;;;5097247;28;20067;-72
2024/03/25 01:11:16;;;;;;;2.20;0.50;;;4.30;91.30;;;;;;5115267;28;20039;-72
2024/03/25 01:13:42;;;;;;;1.88;0.50;;;4.30;91.30;;;;;;5133849;28;20039;-72
2024/03/25 01:16:09;;;;;;;1.17;0.47;;;4.30;91.30;;;;;;5094623;28;20062;-72
2024/03/25 01:18:35;;;;;;;1.17;0.38;;;4.30;91.30;;;;;;5133891;28;20043;-71
2024/03/25 01:21:01;;;;;;;1.20;0.60;;;4.30;91.30;;;;;;5134122;28;20050;-72
2024/03/25 01:23:30;;;;;;;0.90;0.43;;;4.30;91.30;;;;;;5114783;28;20044;-71
2024/03/25 01:25:58;;;;;;;0.80;0.32;;;4.20;91.30;;;;;;5134186;28;20119;-72
2024/03/25 01:28:23;;;;;;;0.77;0.50;;;4.20;91.30;;;;;;5111703;28;20050;-72
2024/03/25 01:30:49;;;;;;;0.70;0.40;;;4.20;91.40;;;;;;5115522;28;20130;-72
2024/03/25 01:33:15;;;;;;;1.13;0.50;;;4.20;91.40;;;;;;5097701;28;20066;-72
2024/03/25 01:35:43;;;;;;;1.38;0.50;;;4.20;91.40;;;;;;5096878;28;20503;-72
2024/03/25 01:38:09;;;;;;;1.10;0.40;;;4.20;91.40;;;;;;5113529;28;20044;-72
2024/03/25 01:40:35;;;;;;;0.70;0.52;;;4.10;91.40;;;;;;5133378;28;20122;-71
2024/03/25 01:43:04;;;;;;;1.90;0.68;;;4.20;91.40;;;;;;5114316;28;20039;-72
2024/03/25 01:45:32;;;;;;;2.78;0.45;;;4.10;91.40;;;;;;5112281;27;20069;-71
2024/03/25 01:48:00;;;;;;;1.40;0.50;;;4.20;91.40;;;;;;5133402;28;20401;-71
2024/03/25 01:50:27;;;;;;;2.08;0.60;;;4.10;91.30;;;;;;5113845;28;20040;-72
2024/03/25 01:52:53;;;;;;;1.08;0.40;;;4.10;91.30;;;;;;5093790;28;20044;-71
2024/03/25 01:55:24;;;;;;;2.35;0.55;;;4.10;91.30;;;;;;5114755;28;20050;-72
2024/03/25 01:57:50;;;;;;;2.17;0.88;;;4.10;91.30;;;;;;5133054;28;20070;-71
2024/03/25 02:00:18;;;;;;;1.65;0.32;;;4.10;91.30;;;;;;5133280;28;20495;-71
2024/03/25 02:02:44;;;;;;;1.83;0.63;;;4.10;91.30;;;;;;5097153;27;20126;-71
2024/03/25 02:05:11;;;;;;;0.93;0.40;;;4.10;91.30;;;;;;5113032;28;20054;-71
2024/03/25 02:07:38;;;;;;;1.58;0.50;;;4.00;91.30;;;;;;5097789;28;20501;-71
2024/03/25 02:10:05;;;;;;;1.20;0.40;;;4.00;91.40;;;;;;5115107;28;20035;-71
2024/03/25 02:12:31;;;;;;;0.40;0.22;;;4.00;91.40;;;;;;5133571;27;20050;-70
2024/03/25 02:14:58;;;;;;;0.90;0.40;;;4.00;91.50;;;;;;5133099;28;20039;-71
2024/03/25 02:17:24;;;;;;;0.30;0.20;;;3.90;91.50;;;;;;5115013;28;20077;-71
2024/03/25 02:19:51;;;;;;;2.15;0.50;;;3.90;91.50;;;;;;5133162;27;20054;-71
2024/03/25 02:22:17;;;;;;;2.20;0.70;;;3.90;91.50;;;;;;5132987;27;20039;-71
2024/03/25 02:24:46;;;;;;;1.88;0.57;;;3.90;91.50;;;;;;5133187;27;20033;-70
2024/03/25 02:27:15;;;;;;;0.98;0.30;;;3.90;91.50;;;;;;5130698;27;20092;-71
2024/03/25 02:29:41;;;;;;;1.10;0.30;;;3.90;91.50;;;;;;5132731;27;20068;-71
2024/03/25 02:32:10;;;;;;;0.90;0.20;;;3.90;91.50;;;;;;5133388;27;20058;-71
2024/03/25 02:34:38;;;;;;;0.20;0.20;;;3.90;91.50;;;;;;5134734;27;20054;-71
2024/03/25 02:37:04;;;;;;;0.60;0.30;;;3.80;91.50;;;;;;5136738;27;20556;-71
2024/03/25 02:39:30;;;;;;;1.23;0.38;;;3.80;91.50;;;;;;5098393;28;20110;-71
2024/03/25 02:41:57;;;;;;;1.05;0.40;;;3.70;91.60;;;;;;5100912;28;20044;-71
2024/03/25 02:44:23;;;;;;;1.73;0.50;;;3.80;91.60;;;;;;5136499;27;20057;-70
2024/03/25 02:46:49;;;;;;;0.93;0.40;;;3.80;91.60;;;;;;5136174;27;20038;-71
2024/03/25 02:49:15;;;;;;;1.17;0.45;;;3.80;91.60;;;;;;5117835;27;20046;-70
2024/03/25 02:51:41;;;;;;;1.33;0.50;;;3.70;91.60;;;;;;5136659;27;20043;-70
2024/03/25 02:54:06;;;;;;;1.45;0.22;;;3.80;91.60;;;;;;5136330;27;20074;-70
2024/03/25 02:56:35;;;;;;;1.38;0.45;;;3.70;91.60;;;;;;5136197;27;20035;-70
2024/03/25 02:59:01;;;;;;;0.55;0.30;;;3.70;91.60;;;;;;5134326;27;20035;-72
2024/03/25 03:01:27;;;;;;;0.28;0.28;;;3.70;91.60;;;;;;5117606;28;20062;-70
2024/03/25 03:03:53;;;;;;;0.45;0.30;;;3.70;91.60;;;;;;5055802;28;20570;-73
2024/03/25 03:06:18;;;;;;;0.20;0.20;;;3.70;91.60;;;;;;5073386;28;20131;-73
2024/03/25 03:08:45;;;;;;;1.60;0.63;;;3.70;91.60;;;;;;5073095;28;20476;-73
2024/03/25 03:11:11;;;;;;;1.52;0.43;;;3.70;91.60;;;;;;5073098;28;20123;-72
2024/03/25 03:13:36;;;;;;;0.20;0.20;;;3.60;91.60;;;;;;5039008;28;20518;-73
2024/03/25 03:16:02;;;;;;;1.00;0.35;;;3.60;91.60;;;;;;5056466;28;20067;-72
2024/03/25 03:18:28;;;;;;;0.70;0.30;;;3.60;91.60;;;;;;5072355;28;20454;-73
2024/03/25 03:20:57;;;;;;;1.98;0.35;;;3.50;91.60;;;;;;5073305;28;20049;-72
2024/03/25 03:23:23;;;;;;;1.15;0.35;;;3.50;91.70;;;;;;5037545;28;20102;-72
2024/03/25 03:25:49;;;;;;;0.55;0.40;;;3.60;91.70;;;;;;5072453;28;20040;-72
2024/03/25 03:28:15;;;;;;;1.75;0.35;;;3.50;91.70;;;;;;5072385;28;20048;-72
2024/03/25 03:30:41;;;;;;;1.75;0.40;;;3.50;91.70;;;;;;5072377;28;20037;-72
2024/03/25 03:33:07;;;;;;;0.68;0.30;;;3.40;91.70;;;;;;5055701;28;20513;-72
2024/03/25 03:35:34;;;;;;;0.30;0.30;;;3.40;91.70;;;;;;5087150;28;20184;-73
2024/03/25 03:37:59;;;;;;;0.38;0.28;;;3.40;91.70;;;;;;5136060;27;20402;-73
2024/03/25 03:40:25;;;;;;;0.20;0.20;;;3.40;92.00;;;;;;5116957;28;20035;-72
2024/03/25 03:42:51;;;;;;;0.68;0.38;;;3.40;91.70;;;;;;5135313;27;20039;-72
2024/03/25 03:45:17;;;;;;;0.38;0.30;;;3.40;91.80;;;;;;5115930;28;20050;-73
2024/03/25 03:47:43;;;;;;;0.20;0.20;;;3.40;91.80;;;;;;5116712;28;20101;-72
2024/03/25 03:50:10;;;;;;;0.70;0.40;;;3.30;91.80;;;;;;5117067;28;20084;-72
2024/03/25 03:52:35;;;;;;;0.30;0.30;;;3.30;91.80;;;;;;5116858;28;20099;-72
2024/03/25 03:55:01;;;;;;;0.60;0.28;;;3.30;91.80;;;;;;5116959;27;20039;-72
2024/03/25 03:57:32;;;;;;;0.30;0.25;;;3.30;91.80;;;;;;5135339;27;20035;-72
2024/03/25 03:59:58;;;;;;;0.95;0.35;;;3.40;91.80;;;;;;5116580;28;20043;-72
2024/03/25 04:02:25;;;;;;;0.20;0.20;;;3.30;91.80;;;;;;5116666;28;20051;-72
2024/03/25 04:04:51;;;;;;;0.52;0.35;;;3.30;91.80;;;;;;5133026;27;20172;-72
2024/03/25 04:07:17;;;;;;;0.80;0.50;;;3.20;91.80;;;;;;5135548;27;20483;-73
2024/03/25 04:09:43;;;;;;;0.47;0.40;;;3.30;91.80;;;;;;5135500;27;20037;-73
2024/03/25 04:12:10;;;;;;;0.93;0.50;;;3.20;91.80;;;;;;5116428;28;20417;-73
2024/03/25 04:14:35;;;;;;;1.25;0.38;;;3.20;91.80;;;;;;5135350;27;20050;-72
2024/03/25 04:17:01;;;;;;;0.57;0.30;;;3.20;91.80;;;;;;5135221;27;20039;-72
2024/03/25 04:19:29;;;;;;;0.35;0.35;;;3.20;91.80;;;;;;5116801;28;20043;-72
2024/03/25 04:21:55;;;;;;;0.70;0.32;;;3.20;91.80;;;;;;5134475;27;20614;-72
2024/03/25 04:24:20;;;;;;;0.90;0.40;;;3.10;91.80;;;;;;5134723;27;20122;-72
2024/03/25 04:26:46;;;;;;;0.47;0.30;;;3.10;91.80;;;;;;5100153;28;20394;-73
2024/03/25 04:29:12;;;;;;;1.80;0.55;;;3.10;91.80;;;;;;5135320;27;20389;-72
2024/03/25 04:31:38;;;;;;;2.05;0.63;;;3.00;91.70;;;;;;5116048;27;20042;-73
2024/03/25 04:34:05;;;;;;;1.83;0.75;;;3.00;91.80;;;;;;5116628;27;20039;-72
2024/03/25 04:36:31;;;;;;;0.50;0.45;;;3.00;91.80;;;;;;5134815;27;20031;-72
2024/03/25 04:38:57;;;;;;;0.55;0.32;;;3.10;91.90;;;;;;5116149;28;20091;-72
2024/03/25 04:41:23;;;;;;;0.57;0.40;;;3.10;91.80;;;;;;5134802;27;20084;-72
2024/03/25 04:43:49;;;;;;;0.60;0.30;;;3.10;91.80;;;;;;5134782;27;20031;-73
2024/03/25 04:46:14;;;;;;;0.52;0.30;;;3.00;91.80;;;;;;5134215;27;20050;-72
2024/03/25 04:48:40;;;;;;;1.00;0.45;;;3.00;91.80;;;;;;5115948;27;20039;-72
2024/03/25 04:51:08;;;;;;;0.50;0.40;;;3.10;91.80;;;;;;5116044;28;20118;-72
2024/03/25 04:53:34;;;;;;;0.45;0.20;;;3.10;91.80;;;;;;5134394;27;20066;-72
2024/03/25 04:56:00;;;;;;;1.42;0.50;;;3.10;91.70;;;;;;5115819;28;20482;-72
2024/03/25 04:58:27;;;;;;;1.02;0.47;;;3.10;91.70;;;;;;5098460;27;20039;-72
2024/03/25 05:00:52;;;;;;;1.48;0.60;;;3.20;91.80;;;;;;5098424;28;20043;-72
2024/03/25 05:03:18;;;;;;;0.73;0.30;;;3.20;91.70;;;;;;5095447;28;20126;-72
2024/03/25 05:05:44;;;;;;;0.90;0.45;;;3.20;91.70;;;;;;5133373;27;20119;-73
2024/03/25 05:08:10;;;;;;;0.63;0.40;;;3.10;91.70;;;;;;5133675;27;20047;-73
2024/03/25 05:10:35;;;;;;;0.75;0.60;;;3.10;91.60;;;;;;5115726;27;20051;-73
2024/03/25 05:13:01;;;;;;;0.40;0.40;;;3.20;91.60;;;;;;5133774;27;20039;-72
2024/03/25 05:15:27;;;;;;;1.85;0.70;;;3.20;91.70;;;;;;5115385;27;20474;-73
2024/03/25 05:17:52;;;;;;;2.45;0.60;;;3.20;91.70;;;;;;5133931;27;20134;-72
2024/03/25 05:20:18;;;;;;;4.05;0.60;;;3.20;91.60;;;;;;5115576;27;20184;-73
2024/03/25 05:22:44;;;;;;;0.85;0.30;;;3.20;91.60;;;;;;5116027;27;20031;-72
2024/03/25 05:25:10;;;;;;;1.23;0.57;;;3.20;91.60;;;;;;5115474;28;20470;-72
2024/03/25 05:27:35;;;;;;;2.15;0.68;;;3.20;91.60;;;;;;5134286;27;20056;-72
2024/03/25 05:30:01;;;;;;;2.72;0.60;;;3.30;91.60;;;;;;5134279;27;20086;-72
2024/03/25 05:32:26;;;;;;;1.27;0.50;;;3.20;91.60;;;;;;5133862;27;20457;-72
2024/03/25 05:34:52;;;;;;;1.58;0.63;;;3.30;91.60;;;;;;5115015;27;20119;-73
2024/03/25 05:37:19;;;;;;;2.05;0.60;;;3.30;91.60;;;;;;5115298;28;20043;-73
2024/03/25 05:39:44;;;;;;;2.13;0.70;;;3.20;91.60;;;;;;5133864;28;20039;-73
2024/03/25 05:42:10;;;;;;;2.25;0.57;;;3.30;91.60;;;;;;5115458;28;20042;-73
2024/03/25 05:44:36;;;;;;;2.70;0.80;;;3.30;91.60;;;;;;5133585;27;20036;-72
2024/03/25 05:47:02;;;;;;;2.15;0.70;;;3.30;91.60;;;;;;5115303;28;20414;-72
2024/03/25 05:49:28;;;;;;;1.85;0.60;;;3.20;91.60;;;;;;5133449;27;20919;-73
2024/03/25 05:51:53;;;;;;;1.33;0.60;;;3.20;91.60;;;;;;5115230;28;20444;-73
2024/03/25 05:54:19;;;;;;;1.27;0.60;;;3.20;91.70;;;;;;5133436;27;20046;-73
2024/03/25 05:56:45;;;;;;;1.23;0.45;;;3.20;91.60;;;;;;5133267;27;20486;-73
2024/03/25 05:59:10;;;;;;;2.17;0.60;;;3.20;91.70;;;;;;5133420;27;20405;-72
2024/03/25 06:01:37;;;;;;;2.13;0.73;;;3.20;91.70;;;;;;5097827;28;20482;-72
2024/03/25 06:04:03;;;;;;;0.80;0.40;;;3.20;91.70;;;;;;5133824;27;20074;-73
2024/03/25 06:06:29;;;;;;;1.55;0.43;;;3.30;91.70;;;;;;5133198;27;20039;-72
2024/03/25 06:08:55;;;;;;;0.70;0.30;;;3.30;91.70;;;;;;5113982;28;20049;-73
2024/03/25 06:11:21;;;;;;;1.08;0.32;;;3.30;91.70;;;;;;5115016;28;20035;-72
2024/03/25 06:13:47;;;;;;;0.50;0.25;;;3.30;91.70;;;;;;5097101;28;20047;-73
2024/03/25 06:16:13;;;;;;;0.73;0.30;;;3.30;91.70;;;;;;5097925;28;20047;-72
2024/03/25 06:18:40;;;;;;;0.50;0.40;;;3.30;91.70;;;;;;5114843;28;20108;-72
2024/03/25 06:21:06;;;;;;;1.63;0.60;;;3.30;91.70;;;;;;5114761;28;20397;-72
2024/03/25 06:23:32;;;;;;;0.82;0.50;;;3.40;91.70;;;;;;5133073;27;20136;-72
2024/03/25 06:25:57;;;;;;;0.55;0.30;;;3.40;91.70;;;;;;5132985;28;20126;-71
2024/03/25 06:28:23;;;;;;;1.05;0.43;;;3.50;91.70;;;;;;5114679;27;20039;-71
2024/03/25 06:36:07;;;;;;;1.02;0.50;;;3.50;91.60;;;;;;5132867;27;20498;-71
2024/03/25 06:38:32;;;;;;;0.47;0.32;;;3.60;91.90;;;;;;5132883;27;20104;-72
2024/03/25 06:40:58;;;;;;;0.20;0.20;;;3.60;91.60;;;;;;5132741;27;20039;-71
2024/03/25 06:43:24;;;;;;;1.38;0.43;;;3.70;91.60;;;;;;5097283;27;20050;-71
2024/03/25 06:45:50;;;;;;;1.75;0.60;;;3.70;91.50;;;;;;5133077;27;20478;-73
2024/03/25 06:48:16;;;;;;;1.48;0.47;;;3.80;91.50;;;;;;5132970;27;20087;-71
2024/03/25 06:50:51;;;;;;;1.08;0.50;;;3.80;91.50;;;;;;5114160;28;20467;-71
2024/03/25 06:53:17;;;;;;;0.30;0.30;;;3.90;91.50;;;;;;5113340;28;20406;-71
2024/03/25 06:55:51;;;;;;;1.02;0.40;;;3.90;91.40;;;;;;5132554;27;20179;-71
2024/03/25 06:58:18;;;;;;;1.17;0.30;;;4.00;91.40;;;;;;5131331;27;20551;-72
2024/03/25 07:00:43;;;;;;;1.40;0.47;;;4.10;91.40;;;;;;5132383;27;20061;-73
2024/03/25 07:03:09;;;;;;;0.88;0.40;;;4.10;91.40;;;;;;5114057;27;20554;-71
2024/03/25 07:05:35;;;;;;;0.30;0.30;;;4.20;91.30;;;;;;5132808;27;20046;-71
2024/03/25 07:08:01;;;;;;;1.92;0.60;;;4.30;91.20;;;;;;5096976;28;20470;-71
2024/03/25 07:10:26;;;;;;;0.95;0.47;;;4.30;91.20;;;;;;5132153;27;20039;-72
2024/03/25 07:12:52;;;;;;;0.65;0.47;;;4.40;91.30;;;;;;5132549;27;20474;-72
2024/03/25 07:15:18;;;;;;;0.88;0.45;;;4.40;91.20;;;;;;5096861;27;20043;-72
2024/03/25 07:17:43;;;;;;;0.30;0.30;;;4.50;91.20;;;;;;5131938;27;20035;-71
2024/03/25 07:20:10;;;;;;;0.88;0.40;;;4.50;91.20;;;;;;5114986;27;20114;-72
2024/03/25 07:22:36;;;;;;;1.15;0.60;;;4.70;91.10;;;;;;5135527;27;20043;-71
2024/03/25 07:25:02;;;;;;;3.63;0.68;;;4.80;91.10;;;;;;5117953;27;20167;-72
2024/03/25 07:27:28;;;;;;;1.02;0.30;;;4.90;91.10;;;;;;5135694;28;20059;-72
2024/03/25 07:29:54;;;;;;;3.67;0.80;;;4.90;91.00;;;;;;5135599;27;20047;-73
2024/03/25 07:32:19;;;;;;;1.50;0.60;;;5.00;90.90;;;;;;5135612;27;20043;-72
2024/03/25 07:34:48;;;;;;;1.80;0.80;;;5.10;90.90;;;;;;5136022;27;20095;-72
2024/03/25 07:37:13;;;;;;;1.48;0.57;;;5.20;90.80;;;;;;5135511;27;20490;-72
2024/03/25 07:39:39;;;;;;;1.02;0.50;;;5.20;90.80;;;;;;5135754;27;20053;-73
2024/03/25 07:42:06;;;;;;;1.45;0.57;;;5.30;90.80;;;;;;5117178;27;20035;-73
2024/03/25 07:44:32;;;;;;;3.38;0.98;;;5.40;90.80;;;;;;5135923;27;20057;-72
2024/03/25 07:46:58;;;;;;;2.50;0.65;;;5.50;90.80;;;;;;5116958;28;20055;-72
2024/03/25 07:49:23;;;;;;;1.73;0.68;;;5.70;90.80;;;;;;5096565;28;20061;-72
2024/03/25 07:51:49;;;;;;;1.63;0.57;;;5.70;90.70;;;;;;5116867;28;20076;-71
2024/03/25 07:54:16;;;;;;;1.02;0.60;;;5.80;90.70;;;;;;5135319;28;20039;-72
2024/03/25 07:56:42;;;;;;;1.40;0.60;;;6.00;90.60;;;;;;5115453;27;20036;-72
2024/03/25 07:59:08;;;;;;;1.65;0.80;;;6.00;90.60;;;;;;5117209;28;20092;-72
2024/03/25 08:01:34;;;;;;;2.90;0.68;;;6.10;90.50;;;;;;5097360;28;20114;-72
2024/03/25 08:03:59;;;;;;;0.85;0.50;;;6.20;90.50;;;;;;5116788;28;20043;-72
2024/03/25 08:06:25;;;;;;;1.42;0.50;;;6.30;90.50;;;;;;5116662;27;20110;-74
2024/03/25 08:08:51;;;;;;;2.35;0.70;;;6.40;90.50;;;;;;5135230;27;20039;-72
2024/03/25 08:11:17;;;;;;;1.45;0.60;;;6.60;90.50;;;;;;5099618;28;20126;-74
2024/03/25 08:13:42;;;;;;;1.23;0.60;;;6.70;90.40;;;;;;5116593;28;20082;-72
2024/03/25 08:16:08;;;;;;;2.08;0.75;;;6.80;90.30;;;;;;5116615;28;20039;-74
2024/03/25 08:18:34;;;;;;;1.05;0.50;;;7.00;90.30;;;;;;5117114;28;20039;-74
2024/03/25 08:20:59;;;;;;;2.42;0.57;;;7.20;90.30;;;;;;5116507;28;20398;-72
2024/03/25 08:23:25;;;;;;;1.17;0.60;;;7.30;90.30;;;;;;5099438;28;20492;-72
2024/03/25 08:25:51;;;;;;;1.00;0.60;;;7.40;90.20;;;;;;5096262;28;20047;-74
2024/03/25 08:28:17;;;;;;;2.05;0.80;;;7.50;90.20;;;;;;5094720;28;20035;-74
2024/03/25 08:30:42;;;;;;;3.10;0.70;;;7.70;90.50;;;;;;5134699;27;20042;-74
2024/03/25 08:33:08;;;;;;;1.98;0.65;;;7.80;90.20;;;;;;5115564;28;20482;-74
2024/03/25 08:35:34;;;;;;;1.10;0.65;;;8.00;90.10;;;;;;5116257;28;20047;-74
2024/03/25 08:38:00;;;;;;;4.30;0.73;;;8.10;90.00;;;;;;5078628;28;20510;-74
2024/03/25 08:40:25;;;;;;;1.55;0.90;;;8.10;90.00;;;;;;5131643;28;20037;-74
2024/03/25 08:42:51;;;;;;;1.88;0.80;;;8.20;90.00;;;;;;5116174;28;20054;-75
2024/03/25 08:45:16;;;;;;;1.65;0.70;;;8.30;90.00;;;;;;5116330;28;20066;-74
2024/03/25 08:47:42;;;;;;;1.38;0.70;;;8.40;90.00;;;;;;5134924;27;20064;-74
2024/03/25 08:50:08;;;;;;;1.67;0.88;;;8.50;90.00;;;;;;5134469;27;20054;-74
2024/03/25 08:52:34;;;;;;;1.20;0.77;;;8.60;89.90;;;;;;5099216;28;20069;-74
2024/03/25 08:55:00;;;;;;;1.50;0.55;;;8.80;89.90;;;;;;5134434;27;20043;-74
2024/03/25 08:57:25;;;;;;;1.38;0.75;;;8.80;89.70;;;;;;5134907;27;20047;-74
2024/03/25 08:59:51;;;;;;;1.63;0.80;;;8.80;89.60;;;;;;5115812;28;20050;-74
2024/03/25 09:02:17;;;;;;;0.88;0.55;;;8.90;89.50;;;;;;5134148;27;20123;-74
2024/03/25 09:04:43;;;;;;;1.35;0.68;;;8.80;89.50;;;;;;5115892;28;20074;-74
2024/03/25 09:07:09;;;;;;;3.55;0.90;;;8.90;89.80;;;;;;5115649;27;20035;-74
2024/03/25 09:12:20;;;;;;;1.88;0.80;;;8.90;90.00;;;;;;5134070;28;20039;-72
2024/03/25 09:14:46;;;;;;;1.88;0.90;;;8.90;90.00;;;;;;5115670;28;20043;-72
2024/03/25 09:17:12;;;;;;;1.45;0.77;;;8.90;89.80;;;;;;5115576;28;20547;-75
2024/03/25 09:19:38;;;;;;;1.23;0.60;;;8.90;90.00;;;;;;5098578;28;20133;-72
2024/03/25 09:22:03;;;;;;;1.52;0.60;;;9.00;90.00;;;;;;5115454;28;20059;-74
2024/03/25 09:24:29;;;;;;;1.00;0.60;;;9.00;89.90;;;;;;5133861;27;20054;-73
2024/03/25 09:26:55;;;;;;;2.15;0.90;;;9.20;89.70;;;;;;5133909;27;20104;-73
2024/03/25 09:29:21;;;;;;;0.52;0.52;;;9.10;89.30;;;;;;5115913;28;20047;-72
2024/03/25 09:31:46;;;;;;;1.35;0.50;;;9.20;89.60;;;;;;5115400;28;20425;-72
2024/03/25 09:34:12;;;;;;;1.20;0.50;;;9.30;89.70;;;;;;5098483;28;21150;-72
2024/03/25 09:36:38;;;;;;;1.90;0.80;;;9.30;89.30;;;;;;5134204;27;20133;-72
2024/03/25 09:39:04;;;;;;;0.88;0.50;;;9.40;89.40;;;;;;5133365;27;20114;-72
2024/03/25 09:41:34;;;;;;;1.05;0.50;;;9.20;89.10;;;;;;5098192;28;20038;-72
2024/03/25 09:44:00;;;;;;;1.27;0.80;;;9.30;89.20;;;;;;5132660;27;20050;-73
2024/03/25 09:46:26;;;;;;;2.42;0.80;;;9.30;89.10;;;;;;5115317;28;20039;-73
2024/03/25 09:48:53;;;;;;;0.95;0.60;;;9.40;89.20;;;;;;5115642;28;20058;-73
2024/03/25 09:51:19;;;;;;;2.17;0.75;;;9.30;89.30;;;;;;5133543;27;20032;-73
2024/03/25 09:53:45;;;;;;;2.65;0.70;;;9.40;89.10;;;;;;5114990;28;20050;-72
2024/03/25 09:56:12;;;;;;;2.45;0.90;;;9.50;89.10;;;;;;5133593;27;20043;-72
2024/03/25 09:58:40;;;;;;;1.35;0.50;;;9.60;88.80;;;;;;5114952;27;20043;-73
2024/03/25 10:01:05;;;;;;;4.15;1.00;;;9.60;88.40;;;;;;5131168;27;20047;-73
2024/03/25 10:03:34;;;;;;;0.90;0.50;;;9.60;88.40;;;;;;5115057;27;20050;-73
2024/03/25 10:06:00;;;;;;;1.30;0.75;;;9.70;88.40;;;;;;5133084;27;20035;-72
2024/03/25 10:08:26;;;;;;;0.95;0.70;;;9.80;88.20;;;;;;5115018;28;20504;-73
2024/03/25 10:10:55;;;;;;;2.97;0.93;;;9.90;88.00;;;;;;5114738;27;20046;-72
2024/03/25 10:13:21;;;;;;;0.95;0.50;;;10.00;87.90;;;;;;5133067;27;20039;-72
2024/03/25 10:15:49;;;;;;;1.92;0.73;;;10.10;87.60;;;;;;5133639;27;20039;-73
2024/03/25 10:18:14;;;;;;;1.23;0.60;;;10.10;87.50;;;;;;5133693;27;20039;-73
2024/03/25 10:20:53;;;;;;;1.63;0.80;;;10.20;87.40;;;;;;5133149;27;20068;-73
2024/03/25 10:23:21;;;;;;;1.08;0.52;;;10.30;87.10;;;;;;5113994;28;20048;-72
2024/03/25 10:25:48;;;;;;;1.42;0.43;;;10.40;86.90;;;;;;5114758;28;20134;-73
2024/03/25 10:28:14;;;;;;;0.80;0.50;;;10.20;86.80;;;;;;5132831;27;20063;-73
2024/03/25 10:30:41;;;;;;;1.58;0.60;;;10.40;87.10;;;;;;5133256;27;20531;-72
2024/03/25 10:33:08;;;;;;;1.73;0.60;;;10.40;87.10;;;;;;5132626;27;20118;-73
2024/03/25 10:35:44;;;;;;;1.63;0.70;;;10.50;87.00;;;;;;5097791;28;20146;-73
2024/03/25 10:38:11;;;;;;;0.75;0.43;;;10.50;86.50;;;;;;5075301;28;20133;-72
2024/03/25 10:40:39;;;;;;;1.33;0.70;;;10.60;86.40;;;;;;5131270;27;20043;-72
2024/03/25 10:43:06;;;;;;;0.65;0.43;;;10.60;86.20;;;;;;5114607;28;20185;-72
2024/03/25 10:45:34;;;;;;;1.75;0.57;;;10.60;86.20;;;;;;5115027;28;20035;-73
2024/03/25 10:48:09;;;;;;;0.75;0.40;;;10.60;86.10;;;;;;5097082;27;20085;-72
2024/03/25 10:50:38;;;;;;;0.63;0.43;;;10.70;86.00;;;;;;5132728;27;20044;-72
2024/03/25 10:53:05;;;;;;;1.17;0.50;;;10.60;86.00;;;;;;5132594;27;20039;-72
2024/03/25 10:55:33;;;;;;;1.77;0.40;;;10.70;86.20;;;;;;5115985;28;20043;-71
2024/03/25 10:58:00;;;;;;;0.85;0.50;;;10.80;86.00;;;;;;5118103;28;20073;-71
2024/03/25 11:00:26;;;;;;;0.82;0.40;;;10.80;85.90;;;;;;5136620;27;20039;-71
2024/03/25 11:02:53;;;;;;;0.35;0.35;;;10.80;85.70;;;;;;5136705;27;20371;-72
2024/03/25 11:05:19;;;;;;;0.82;0.40;;;10.80;85.70;;;;;;5097492;28;20035;-72
2024/03/25 11:07:46;;;;;;;1.05;0.50;;;10.80;85.60;;;;;;5117138;28;20074;-71
2024/03/25 11:10:12;;;;;;;0.77;0.50;;;10.80;85.70;;;;;;5135904;27;20036;-71
2024/03/25 11:12:41;;;;;;;1.45;0.60;;;11.00;85.60;;;;;;5117687;27;20480;-72
2024/03/25 11:15:07;;;;;;;0.70;0.50;;;11.20;85.20;;;;;;5136327;27;20122;-71
2024/03/25 11:17:34;;;;;;;0.95;0.40;;;11.20;84.90;;;;;;5136042;27;20048;-72
2024/03/25 11:20:09;;;;;;;0.47;0.30;;;11.30;84.70;;;;;;5135676;27;20039;-71
2024/03/25 11:22:35;;;;;;;1.05;0.32;;;11.20;84.70;;;;;;5135119;27;20104;-72
2024/03/25 11:25:11;;;;;;;0.80;0.52;;;11.20;84.70;;;;;;5135712;27;20046;-72
2024/03/25 11:27:37;;;;;;;0.93;0.47;;;11.20;84.80;;;;;;5116150;28;20043;-72
2024/03/25 11:30:06;;;;;;;1.15;0.50;;;11.20;84.70;;;;;;5135802;27;20461;-72
2024/03/25 11:32:45;;;;;;;0.90;0.50;;;11.10;84.70;;;;;;5135679;27;20544;-72
2024/03/25 11:35:11;;;;;;;1.63;0.50;;;11.10;85.00;;;;;;5116874;27;20039;-71
2024/03/25 11:37:41;;;;;;;1.42;0.70;;;11.10;84.90;;;;;;5116982;27;20395;-72
2024/03/25 11:40:09;;;;;;;0.53;0.50;;;11.30;84.80;;;;;;5117554;27;20127;-72
2024/03/25 11:42:37;;;;;;;0.98;0.50;;;11.50;84.50;;;;;;5135859;27;20284;-73
2024/03/25 11:45:04;;;;;;;0.73;0.60;;;11.60;84.00;;;;;;5115655;28;20039;-72
2024/03/25 11:47:30;;;;;;;0.65;0.47;;;11.70;83.60;;;;;;5079951;28;20079;-73
2024/03/25 11:49:56;;;;;;;2.15;0.73;;;11.70;83.20;;;;;;5135214;27;20037;-73
2024/03/25 11:52:22;;;;;;;0.98;0.80;;;11.80;83.40;;;;;;5135419;27;20121;-73
2024/03/25 11:54:55;;;;;;;1.58;0.73;;;11.80;82.90;;;;;;5135225;27;20039;-72
2024/03/25 11:57:22;;;;;;;2.78;0.75;;;11.70;82.80;;;;;;5133712;27;20143;-71
2024/03/25 11:59:48;;;;;;;0.88;0.63;;;11.60;83.00;;;;;;5114934;28;20073;-72
2024/03/25 12:02:16;;;;;;;1.15;0.73;;;11.70;83.40;;;;;;5116958;28;20043;-72
2024/03/25 12:04:43;;;;;;;0.60;0.50;;;11.80;83.10;;;;;;5099754;28;20035;-72
2024/03/25 12:07:12;;;;;;;0.63;0.60;;;11.80;82.90;;;;;;5134138;27;20039;-73
2024/03/25 12:12:20;;;;;;;0.45;0.40;;;11.70;82.90;;;;;;5135070;27;20039;-72
2024/03/25 12:14:45;;;;;;;0.50;0.50;;;11.70;83.00;;;;;;5116643;28;20494;-71
2024/03/25 12:17:11;;;;;;;0.75;0.50;;;11.60;83.10;;;;;;5116609;27;20398;-72
2024/03/25 12:19:37;;;;;;;0.70;0.50;;;11.50;83.20;;;;;;5116989;28;20486;-72
2024/03/25 12:22:03;;;;;;;0.40;0.40;;;11.40;83.40;;;;;;5116480;28;20504;-72
2024/03/25 12:24:29;;;;;;;0.50;0.50;;;11.40;83.60;;;;;;5116401;28;20039;-72
2024/03/25 12:26:54;;;;;;;0.52;0.45;;;11.60;83.70;;;;;;5135069;27;20039;-73
2024/03/25 12:29:20;;;;;;;0.60;0.57;;;11.70;83.40;;;;;;5135468;27;20062;-71
2024/03/25 12:31:57;;;;;;;0.65;0.40;;;12.00;83.10;;;;;;5135209;27;20398;-72
2024/03/25 12:34:26;;;;;;;0.40;0.40;;;12.20;82.50;;;;;;5132972;28;20088;-72
2024/03/25 12:36:51;;;;;;;0.40;0.40;;;12.30;82.10;;;;;;5132499;27;20045;-73
2024/03/25 12:39:19;;;;;;;0.40;0.40;;;12.40;81.40;;;;;;5134925;27;20038;-73
2024/03/25 12:41:45;;;;;;;0.63;0.63;;;12.40;81.20;;;;;;5134705;27;20027;-71
2024/03/25 12:44:12;;;;;;;0.47;0.47;;;12.40;81.40;;;;;;5116343;27;20037;-74
2024/03/25 12:46:39;;;;;;;0.30;0.28;;;12.40;81.30;;;;;;5132924;28;20130;-72
2024/03/25 12:49:06;;;;;;;0.60;0.60;;;12.50;81.30;;;;;;5116187;28;20067;-73
2024/03/25 12:51:32;;;;;;;1.40;0.70;;;12.60;81.00;;;;;;5115248;28;20028;-73
2024/03/25 12:53:58;;;;;;;1.25;0.70;;;12.60;80.90;;;;;;5134552;28;20087;-72
2024/03/25 12:56:24;;;;;;;0.68;0.52;;;12.80;80.80;;;;;;5114619;28;20039;-74
2024/03/25 12:58:51;;;;;;;0.47;0.47;;;12.80;80.60;;;;;;5098546;28;20058;-73
2024/03/25 13:01:16;;;;;;;1.38;0.60;;;12.90;80.40;;;;;;5115132;28;20130;-74